Eurocargo Valencia — IBGZ — position and weather

sailwx.info

Track history (hours):
 
Tides and Currents Weather Stations Pressure Air Temp Water Temp Dewpoint Dewpoint Depression Visibility Wind Speed Wind Dir Waves Ship Positions

Eurocargo Valencia

Last reported at 2015-Jan-09 06:31 UTC. Time now 2015-Jan-30 09:31 UTC.
Position N 32°08' E 034°35'.
Warning: this ship's position is 21 days out of date.

Length 196 m; draft 6.6 m.

Type: Ship (hazmat cat A). MMSI: 247579000.

Date/timePositionNaut miles runAvg speedWind from/ knotsBaromVisibWave heightAir tempDewpointWater temp
2015-Jan-09 06:31N 32°08' E 034°35'1515.0
2015-Jan-09 05:33N 32°22' E 034°40'1413.9
2015-Jan-09 04:33N 32°36' E 034°44'1613.4
2015-Jan-09 03:20N 32°51' E 034°49'123 5.8
2015-Jan-08 06:05N 34°08' E 032°54'816.0
2015-Jan-08 05:33N 34°14' E 032°47'1616.1
2015-Jan-08 04:34N 34°27' E 032°35'1416.4
2015-Jan-08 03:44N 34°37' E 032°24'29014.3
2015-Jan-07 07:27N 36°12' E 026°48'1413.7
2015-Jan-07 06:26N 36°10' E 026°31'1213.5
2015-Jan-07 05:34N 36°10' E 026°17'1313.5
2015-Jan-07 04:34N 36°10' E 025°60'1413.8
2015-Jan-07 03:33N 36°11' E 025°43'1413.7
2015-Jan-07 02:34N 36°14' E 025°26'1414.2
2015-Jan-07 01:33N 36°19' E 025°10'1413.9
2015-Jan-07 00:33N 36°24' E 024°53'1414.3
2015-Jan-06 23:33N 36°29' E 024°37'1414.1
2015-Jan-06 22:33N 36°34' E 024°21'1413.7
2015-Jan-06 21:34N 36°45' E 024°11'1514.9
2015-Jan-06 20:34N 36°60' E 024°04'5015.0
2015-Jan-06 17:12N 37°46' E 023°39'914.6
2015-Jan-06 16:33N 37°55' E 023°37'3 2.4
2015-Jan-06 15:25N 37°58' E 023°36'0 0.0
2015-Jan-06 14:31N 37°58' E 023°36'0 0.0
2015-Jan-06 13:31N 37°58' E 023°36'0 0.0
2015-Jan-06 12:31N 37°58' E 023°36'0 0.0
2015-Jan-06 11:31N 37°58' E 023°36'0 0.0
2015-Jan-06 10:28N 37°58' E 023°36'0 0.0
2015-Jan-06 09:31N 37°58' E 023°36'0 0.4
2015-Jan-06 08:33N 37°57' E 023°36'4 4.2
2015-Jan-06 07:33N 37°53' E 023°37'  
2014-Dec-31 14:09N 41°58' E 016°36'3215.6
2014-Dec-31 12:06N 41°38' E 017°09'  
Track history (hours):
 
Tides and Currents Weather Stations Pressure Air Temp Water Temp Dewpoint Dewpoint Depression Visibility Wind Speed Wind Dir Waves Ship Positions

Eurocargo Valencia

Last reported at 2015-Jan-09 06:31 UTC. Time now 2015-Jan-30 09:31 UTC.
Position N 32°08' E 034°35'.
Warning: this ship's position is 21 days out of date.

Length 196 m; draft 6.6 m.

Type: Ship (hazmat cat A). MMSI: 247579000.

Date/timePositionNaut miles runAvg speedWind from/ knotsBaromVisibWave heightAir tempDewpointWater temp
2015-Jan-09 06:31N 32°08' E 034°35'1515.0
2015-Jan-09 05:33N 32°22' E 034°40'1413.9
2015-Jan-09 04:33N 32°36' E 034°44'1613.4
2015-Jan-09 03:20N 32°51' E 034°49'123 5.8
2015-Jan-08 06:05N 34°08' E 032°54'816.0
2015-Jan-08 05:33N 34°14' E 032°47'1616.1
2015-Jan-08 04:34N 34°27' E 032°35'1416.4
2015-Jan-08 03:44N 34°37' E 032°24'29014.3
2015-Jan-07 07:27N 36°12' E 026°48'1413.7
2015-Jan-07 06:26N 36°10' E 026°31'1213.5
2015-Jan-07 05:34N 36°10' E 026°17'1313.5
2015-Jan-07 04:34N 36°10' E 025°60'1413.8
2015-Jan-07 03:33N 36°11' E 025°43'1413.7
2015-Jan-07 02:34N 36°14' E 025°26'1414.2
2015-Jan-07 01:33N 36°19' E 025°10'1413.9
2015-Jan-07 00:33N 36°24' E 024°53'1414.3
2015-Jan-06 23:33N 36°29' E 024°37'1414.1
2015-Jan-06 22:33N 36°34' E 024°21'1413.7
2015-Jan-06 21:34N 36°45' E 024°11'1514.9
2015-Jan-06 20:34N 36°60' E 024°04'5015.0
2015-Jan-06 17:12N 37°46' E 023°39'914.6
2015-Jan-06 16:33N 37°55' E 023°37'3 2.4
2015-Jan-06 15:25N 37°58' E 023°36'0 0.0
2015-Jan-06 14:31N 37°58' E 023°36'0 0.0
2015-Jan-06 13:31N 37°58' E 023°36'0 0.0
2015-Jan-06 12:31N 37°58' E 023°36'0 0.0
2015-Jan-06 11:31N 37°58' E 023°36'0 0.0
2015-Jan-06 10:28N 37°58' E 023°36'0 0.0
2015-Jan-06 09:31N 37°58' E 023°36'0 0.4
2015-Jan-06 08:33N 37°57' E 023°36'4 4.2
2015-Jan-06 07:33N 37°53' E 023°37'  
2014-Dec-31 14:09N 41°58' E 016°36'3215.6
2014-Dec-31 12:06N 41°38' E 017°09'  

Dump ship's entire track history